Time;durP1;ratioP1;P1;durP2;ratioP2;P2;SDS_P1;SDS_P2;PMS_P1;PMS_P2;Temp;Humidity;BMP_temperature;BMP_pressure;BME280_temperature;BME280_humidity;BME280_pressure;Samples;Min_cycle;Max_cycle;Signal;HPM_P1;HPM_P2
2022/02/27 00:02:14;;;;;;;22.98;9.43;;;;;;;-0.20;100.00;66758.25;5049085;28;20052;-83
2022/02/27 00:04:40;;;;;;;22.25;8.40;;;;;;;-0.15;100.00;66766.47;5043839;28;20055;-82
2022/02/27 00:07:06;;;;;;;18.45;7.93;;;;;;;-0.08;100.00;66771.19;5061412;28;20034;-84
2022/02/27 00:09:31;;;;;;;14.77;6.97;;;;;;;-0.07;100.00;66772.88;5047723;28;20060;-83
2022/02/27 00:11:57;;;;;;;18.90;6.82;;;;;;;-0.19;100.00;66762.00;5050219;28;20060;-85
2022/02/27 00:14:23;;;;;;;18.25;7.72;;;;;;;-0.03;100.00;66777.38;5057651;28;20041;-82
2022/02/27 00:16:48;;;;;;;17.38;7.05;;;;;;;-0.06;100.00;66779.25;5044078;28;20461;-84
2022/02/27 00:19:14;;;;;;;20.17;7.68;;;;;;;0.00;100.00;66780.19;5039062;28;20137;-81
2022/02/27 00:21:40;;;;;;;23.60;8.93;;;;;;;0.00;100.00;66785.41;5044944;28;20041;-83
2022/02/27 00:24:06;;;;;;;15.00;7.28;;;;;;;-0.03;100.00;66777.38;5042287;28;20456;-83
2022/02/27 00:26:31;;;;;;;15.70;7.32;;;;;;;;;;5076062;28;20049;-83
2022/02/27 00:28:57;;;;;;;19.05;7.65;;;;;;;0.02;100.00;66790.28;5031316;28;20091;-85
2022/02/27 00:31:22;;;;;;;17.75;7.57;;;;;;;0.01;100.00;66783.38;5058335;28;20060;-84
2022/02/27 00:33:47;;;;;;;22.60;7.70;;;;;;;0.09;100.00;66792.38;5063328;28;20135;-83
2022/02/27 00:36:13;;;;;;;21.30;6.93;;;;;;;-0.01;100.00;66784.28;5057068;28;20191;-82
2022/02/27 00:38:38;;;;;;;15.93;7.32;;;;;;;;;;5031812;28;20390;-82
2022/02/27 00:41:03;;;;;;;21.98;7.25;;;;;;;-0.04;100.00;66776.25;5043773;28;20056;-84
2022/02/27 00:43:29;;;;;;;16.27;6.95;;;;;;;-0.06;100.00;66773.44;5040102;28;20040;-85
2022/02/27 00:45:54;;;;;;;21.17;7.10;;;;;;;-0.18;100.00;66760.50;5056538;28;20096;-84
2022/02/27 00:48:20;;;;;;;18.50;7.25;;;;;;;-0.11;100.00;66768.38;5055585;28;20504;-83
2022/02/27 00:50:45;;;;;;;18.88;7.35;;;;;;;-0.13;100.00;66765.56;5041223;28;20037;-84
2022/02/27 00:53:10;;;;;;;21.52;7.53;;;;;;;-0.09;100.00;66775.28;5046928;28;20029;-82
2022/02/27 00:55:36;;;;;;;17.70;7.60;;;;;;;-0.01;100.00;66782.22;5043132;28;20045;-82
2022/02/27 00:58:03;;;;;;;14.68;7.38;;;;;;;-0.14;100.00;66764.44;5032028;28;20041;-82
2022/02/27 01:00:28;;;;;;;18.13;7.03;;;;;;;-0.22;100.00;66763.31;5050151;28;20122;-82
2022/02/27 01:02:54;;;;;;;18.33;7.32;;;;;;;-0.24;100.00;66756.38;5045467;28;20501;-85
2022/02/27 01:05:19;;;;;;;15.88;6.85;;;;;;;-0.48;100.00;66733.13;5046760;28;20040;-84
2022/02/27 01:07:45;;;;;;;18.77;7.68;;;;;;;-0.36;100.00;66740.84;5041107;28;20485;-82
2022/02/27 01:10:11;;;;;;;17.20;6.78;;;;;;;-0.42;100.00;66733.53;5046323;28;20064;-82
2022/02/27 01:12:36;;;;;;;16.92;7.40;;;;;;;-0.53;100.00;66727.50;5042703;28;20046;-84
2022/02/27 01:15:03;;;;;;;18.60;7.88;;;;;;;-0.55;100.00;66720.03;5057050;28;20048;-82
2022/02/27 01:17:28;;;;;;;17.52;7.00;;;;;;;;;;5037488;28;20048;-81
2022/02/27 01:19:55;;;;;;;19.30;6.90;;;;;;;-0.51;100.00;66729.78;5044723;28;20049;-83
2022/02/27 01:22:20;;;;;;;17.92;6.68;;;;;;;-0.55;100.00;66722.09;5033274;28;20053;-82
2022/02/27 01:24:46;;;;;;;15.93;6.72;;;;;;;-0.44;100.00;66734.44;5046492;28;20065;-81
2022/02/27 01:27:11;;;;;;;13.60;6.22;;;;;;;-0.61;100.00;66718.53;5024112;28;20072;-81
2022/02/27 01:29:37;;;;;;;16.55;8.23;;;;;;;;;;5031341;28;20063;-81
2022/02/27 01:32:03;;;;;;;20.10;8.30;;;;;;;-0.63;100.00;66713.09;5034734;28;20053;-83
2022/02/27 01:34:28;;;;;;;19.25;7.85;;;;;;;-0.65;100.00;66713.47;5072556;28;20029;-82
2022/02/27 01:36:54;;;;;;;20.27;8.38;;;;;;;-0.57;100.00;66719.84;5054634;28;20053;-84
2022/02/27 01:39:19;;;;;;;18.13;8.48;;;;;;;-0.54;100.00;66720.59;5008470;28;20068;-82
2022/02/27 01:41:45;;;;;;;18.52;7.50;;;;;;;-0.60;100.00;66716.47;5033901;28;20083;-82
2022/02/27 01:44:11;;;;;;;17.88;7.45;;;;;;;-0.54;100.00;66728.44;5055337;28;20622;-82
2022/02/27 01:46:58;;;;;;;21.25;8.10;;;;;;;-0.52;100.00;66723.44;5040493;28;20065;-82
2022/02/27 01:49:24;;;;;;;22.08;7.63;;;;;;;-0.38;100.00;66741.19;5035337;28;20060;-81
2022/02/27 01:51:49;;;;;;;16.52;7.50;;;;;;;-0.31;100.00;66751.13;5036558;28;20195;-81
2022/02/27 01:54:16;;;;;;;18.63;7.82;;;;;;;-0.27;100.00;66755.63;5036881;28;20041;-82
2022/02/27 01:56:42;;;;;;;21.58;8.75;;;;;;;-0.12;100.00;66767.25;5039772;28;20045;-81
2022/02/27 01:59:08;;;;;;;16.85;7.45;;;;;;;-0.02;100.00;66780.56;5045902;28;20065;-83
2022/02/27 02:01:34;;;;;;;18.60;7.10;;;;;;;0.05;100.00;66785.25;5023497;28;20037;-81
2022/02/27 02:03:59;;;;;;;15.32;6.35;;;;;;;0.09;100.00;66794.97;5067394;28;20051;-83
2022/02/27 02:06:25;;;;;;;19.80;7.03;;;;;;;0.19;100.00;66801.53;5035381;28;20136;-83
2022/02/27 02:08:50;;;;;;;15.27;6.47;;;;;;;;;;5033378;28;20076;-83
2022/02/27 02:11:15;;;;;;;17.77;6.80;;;;;;;;;;5034534;28;20045;-81
2022/02/27 02:13:42;;;;;;;16.83;7.00;;;;;;;;;;5034405;28;20131;-83
2022/02/27 02:16:07;;;;;;;15.93;6.80;;;;;;;0.27;100.00;66809.97;5044406;28;20513;-82
2022/02/27 02:18:33;;;;;;;16.77;6.63;;;;;;;0.26;100.00;66808.88;5034364;28;20049;-82
2022/02/27 02:20:58;;;;;;;16.70;6.57;;;;;;;0.29;100.00;66816.88;5032119;28;20247;-82
2022/02/27 02:23:24;;;;;;;19.75;5.97;;;;;;;0.33;100.00;66818.78;5031591;28;20046;-81
2022/02/27 02:25:50;;;;;;;15.52;7.13;;;;;;;0.25;100.00;66809.78;5037564;28;20163;-84
2022/02/27 02:28:15;;;;;;;14.73;5.82;;;;;;;0.15;100.00;66797.06;5035595;28;20061;-82
2022/02/27 02:30:42;;;;;;;16.30;6.68;;;;;;;0.20;100.00;66805.28;5032643;28;20132;-84
2022/02/27 02:33:07;;;;;;;17.58;7.07;;;;;;;0.25;100.00;66807.16;5039652;28;20187;-83
2022/02/27 02:35:33;;;;;;;13.63;6.50;;;;;;;0.25;100.00;66810.34;5031273;28;20132;-82
2022/02/27 02:38:00;;;;;;;17.15;6.60;;;;;;;0.14;100.00;66795.91;5034756;28;20050;-83
2022/02/27 02:40:26;;;;;;;18.92;7.18;;;;;;;0.19;100.00;66803.59;5036998;28;20041;-82
2022/02/27 02:42:52;;;;;;;19.15;6.32;;;;;;;0.18;100.00;66805.09;5035235;28;20512;-82
2022/02/27 02:45:20;;;;;;;20.25;7.38;;;;;;;0.25;100.00;66807.16;5036216;28;20067;-82
2022/02/27 02:47:48;;;;;;;21.10;7.70;;;;;;;0.12;100.00;66796.28;5027190;28;20437;-83
2022/02/27 02:50:15;;;;;;;19.23;6.78;;;;;;;0.16;100.00;66803.41;5019375;28;20075;-84
2022/02/27 02:52:41;;;;;;;20.42;6.38;;;;;;;-0.01;100.00;66782.22;5039214;28;20453;-83
2022/02/27 02:55:10;;;;;;;19.45;7.00;;;;;;;0.12;100.00;66793.69;5042162;28;20045;-82
2022/02/27 02:57:35;;;;;;;16.77;7.45;;;;;;;0.21;100.00;66803.22;5049921;28;20048;-85
2022/02/27 03:00:00;;;;;;;21.30;7.05;;;;;;;0.24;100.00;66809.22;5044518;28;20053;-84
2022/02/27 03:02:26;;;;;;;14.18;5.63;;;;;;;0.24;100.00;66806.59;5032025;28;20106;-83
2022/02/27 03:04:52;;;;;;;19.05;5.75;;;;;;;0.19;100.00;66801.53;5041633;28;20437;-84
2022/02/27 03:07:19;;;;;;;16.63;6.60;;;;;;;0.20;100.00;66802.09;5032958;28;20073;-84
2022/02/27 03:09:44;;;;;;;21.55;7.05;;;;;;;0.11;100.00;66791.97;5051468;28;20106;-85
2022/02/27 03:12:10;;;;;;;21.13;6.95;;;;;;;0.09;100.00;66792.38;5040050;28;20049;-83
2022/02/27 03:14:36;;;;;;;17.60;7.80;;;;;;;0.07;100.00;66787.50;5050362;28;20041;-84
2022/02/27 03:17:01;;;;;;;19.52;6.57;;;;;;;-0.06;100.00;66776.03;5034323;28;20099;-85
2022/02/27 03:19:27;;;;;;;16.27;6.70;;;;;;;-0.09;100.00;66770.63;5028345;28;20052;-84
2022/02/27 03:21:52;;;;;;;16.33;6.28;;;;;;;-0.10;100.00;66771.56;5022534;28;20049;-85
2022/02/27 03:24:17;;;;;;;15.05;6.57;;;;;;;-0.16;100.00;66767.44;5035059;28;20074;-84
2022/02/27 03:26:45;;;;;;;11.52;6.45;;;;;;;-0.09;100.00;66773.22;5033444;28;20048;-82
2022/02/27 03:29:10;;;;;;;14.55;7.68;;;;;;;0.05;100.00;66788.41;5032505;28;20662;-84
2022/02/27 03:31:37;;;;;;;21.45;7.15;;;;;;;-0.12;100.00;66766.69;5047772;28;20479;-84
2022/02/27 03:34:04;;;;;;;21.48;7.57;;;;;;;-0.20;100.00;66762.91;5009086;28;20045;-84
2022/02/27 03:36:30;;;;;;;15.32;7.22;;;;;;;-0.19;100.00;66762.00;5057724;28;20482;-82
2022/02/27 03:38:57;;;;;;;15.40;7.55;;;;;;;;;;5051093;28;20045;-84
2022/02/27 03:41:25;;;;;;;14.88;7.28;;;;;;;-0.22;100.00;66761.25;5048321;28;20086;-84
2022/02/27 03:43:53;;;;;;;16.63;8.07;;;;;;;-0.26;100.00;66752.09;5053466;28;20123;-83
2022/02/27 03:46:21;;;;;;;17.92;7.78;;;;;;;-0.38;100.00;66741.19;5052730;28;20045;-82
2022/02/27 03:48:47;;;;;;;17.33;7.97;;;;;;;-0.40;100.00;66738.38;5032360;28;20052;-83
2022/02/27 03:51:17;;;;;;;18.95;8.15;;;;;;;-0.42;100.00;66736.72;5050124;28;20053;-83
2022/02/27 03:53:43;;;;;;;19.80;7.72;;;;;;;-0.35;100.00;66746.63;5033991;28;20068;-85
2022/02/27 03:56:10;;;;;;;14.10;7.28;;;;;;;-0.36;100.00;66743.44;5056346;28;20072;-84
2022/02/27 03:58:36;;;;;;;18.67;7.40;;;;;;;-0.42;100.00;66734.09;5052954;28;20052;-82
2022/02/27 04:01:02;;;;;;;12.13;6.85;;;;;;;-0.47;100.00;66733.69;5047749;28;20132;-82
2022/02/27 04:03:30;;;;;;;18.95;7.65;;;;;;;-0.64;100.00;66711.97;5035106;28;20129;-83
2022/02/27 04:05:57;;;;;;;24.17;8.13;;;;;;;-0.46;100.00;66730.16;5035493;28;20440;-81
2022/02/27 04:08:24;;;;;;;16.23;7.50;;;;;;;-0.39;100.00;66742.69;5037905;28;20048;-82
2022/02/27 04:10:50;;;;;;;17.90;7.28;;;;;;;-0.41;100.00;66734.66;5053515;28;20042;-83
2022/02/27 04:13:16;;;;;;;15.00;7.53;;;;;;;-0.32;100.00;66745.31;5037192;28;20134;-84
2022/02/27 04:15:41;;;;;;;14.13;6.70;;;;;;;-0.41;100.00;66737.81;5053686;28;20056;-83
2022/02/27 04:18:07;;;;;;;17.02;7.07;;;;;;;-0.35;100.00;66744.56;5046865;28;20041;-81
2022/02/27 04:20:33;;;;;;;19.17;7.78;;;;;;;-0.37;100.00;66742.34;5045243;28;20049;-83
2022/02/27 04:23:14;;;;;;;17.00;7.10;;;;;;;-0.27;100.00;66750.38;5046443;28;20482;-82
2022/02/27 04:25:42;;;;;;;18.17;7.82;;;;;;;-0.35;100.00;66741.38;5032863;28;20103;-82
2022/02/27 04:28:08;;;;;;;17.00;7.00;;;;;;;-0.51;100.00;66723.97;5036513;28;20033;-82
2022/02/27 04:30:33;;;;;;;19.35;7.68;;;;;;;-0.41;100.00;66735.22;5040605;28;20045;-83
2022/02/27 04:33:05;;;;;;;17.58;7.20;;;;;;;-0.54;100.00;66725.84;5038833;28;20033;-83
2022/02/27 04:35:31;;;;;;;18.77;8.00;;;;;;;-0.59;100.00;66718.16;5052714;28;20058;-82
2022/02/27 04:37:58;;;;;;;15.73;7.22;;;;;;;-0.73;100.00;66702.97;5047499;28;20052;-82
2022/02/27 04:40:24;;;;;;;20.42;7.40;;;;;;;-0.75;100.00;66702.78;5042021;28;20044;-83
2022/02/27 04:42:49;;;;;;;18.08;7.55;;;;;;;-0.76;100.00;66702.22;5037180;28;20082;-82
2022/02/27 04:45:16;;;;;;;16.00;8.13;;;;;;;-0.80;100.00;66692.53;5039006;28;20106;-82
2022/02/27 04:47:45;;;;;;;12.70;6.32;;;;;;;-0.83;100.00;66693.81;5028800;28;20045;-83
2022/02/27 04:50:13;;;;;;;18.85;8.20;;;;;;;-0.70;100.00;66706.34;5037072;28;20037;-83
2022/02/27 04:52:40;;;;;;;15.10;7.65;;;;;;;-0.64;100.00;66714.59;5035581;28;20049;-84
2022/02/27 04:55:06;;;;;;;24.17;7.90;;;;;;;-0.77;100.00;66698.50;5042022;28;20434;-82
2022/02/27 04:57:38;;;;;;;17.17;7.68;;;;;;;-0.73;100.00;66700.38;5037058;28;20087;-83
2022/02/27 05:00:07;;;;;;;17.35;7.40;;;;;;;-0.83;100.00;66688.59;5036320;28;20052;-81
2022/02/27 05:02:38;;;;;;;16.20;8.47;;;;;;;-0.83;100.00;66688.59;5039299;28;20042;-84
2022/02/27 05:05:07;;;;;;;12.70;6.80;;;;;;;-0.89;100.00;66687.63;5028552;28;20917;-85
2022/02/27 05:07:34;;;;;;;15.50;8.18;;;;;;;-0.75;100.00;66698.13;5040872;28;20132;-82
2022/02/27 05:10:02;;;;;;;16.83;7.72;;;;;;;-0.79;100.00;66698.84;5026293;28;20381;-83
2022/02/27 05:12:30;;;;;;;16.23;7.22;;;;;;;-0.81;100.00;66690.81;5041062;28;20052;-84
2022/02/27 05:14:56;;;;;;;16.08;7.15;;;;;;;-0.81;100.00;66691.38;5038351;28;20045;-83
2022/02/27 05:17:33;;;;;;;16.20;7.30;;;;;;;-0.74;100.00;66704.47;5058911;28;20133;-85
2022/02/27 05:20:05;;;;;;;12.38;6.57;;;;;;;-0.81;100.00;66696.59;5041586;28;20580;-84
2022/02/27 05:22:57;;;;;;;14.65;7.82;;;;;;;-0.69;100.00;66704.31;5046221;28;20053;-84
2022/02/27 05:25:24;;;;;;;14.77;7.00;;;;;;;-0.72;100.00;66706.16;5037397;28;20037;-83
2022/02/27 05:27:53;;;;;;;17.05;7.20;;;;;;;-0.69;100.00;66709.53;5034378;28;20037;-85
2022/02/27 05:30:20;;;;;;;;;;;;;;;-0.68;100.00;66708.06;5044727;28;20167;-84
2022/02/27 05:32:48;;;;;;;15.45;7.57;;;;;;;-0.77;100.00;66705.78;5068149;28;19926;-82
2022/02/27 05:35:18;;;;;;;16.02;7.50;;;;;;;-0.75;100.00;66700.16;5063519;28;20051;-83
2022/02/27 05:37:45;;;;;;;16.80;7.00;;;;;;;-0.79;100.00;66698.84;5035652;28;20041;-82
2022/02/27 05:40:11;;;;;;;21.67;6.68;;;;;;;-0.76;100.00;66696.44;5029329;28;20053;-82
2022/02/27 05:42:41;;;;;;;11.15;6.50;;;;;;;-0.74;100.00;66701.88;5038559;28;20050;-81
2022/02/27 05:45:08;;;;;;;11.95;6.78;;;;;;;-0.63;100.00;66715.72;5076211;28;20049;-84
2022/02/27 05:47:46;;;;;;;12.15;6.47;;;;;;;-0.70;100.00;66708.97;5041201;28;20036;-84
2022/02/27 05:50:13;;;;;;;16.60;6.75;;;;;;;-0.75;100.00;66700.75;5023976;28;20592;-84
2022/02/27 05:52:39;;;;;;;13.48;7.03;;;;;;;-0.73;100.00;66708.22;5069511;28;20043;-83
2022/02/27 05:55:05;;;;;;;12.05;6.70;;;;;;;-0.65;100.00;66708.25;5034748;28;20049;-83
2022/02/27 05:57:30;;;;;;;15.25;7.10;;;;;;;-0.59;100.00;66715.00;5054238;28;20041;-82
2022/02/27 05:59:56;;;;;;;11.40;6.95;;;;;;;-0.53;100.00;66724.34;5049229;28;20532;-83
2022/02/27 06:02:21;;;;;;;16.83;7.45;;;;;;;-0.56;100.00;66718.91;5047582;28;20130;-86
2022/02/27 06:04:48;;;;;;;12.35;5.85;;;;;;;-0.51;100.00;66723.97;5041869;28;20497;-84
2022/02/27 06:07:13;;;;;;;15.43;6.53;;;;;;;-0.53;100.00;66721.72;5034102;28;20569;-82
2022/02/27 06:09:39;;;;;;;13.13;6.03;;;;;;;-0.48;100.00;66727.91;5070444;28;20039;-83
2022/02/27 06:12:04;;;;;;;14.52;6.32;;;;;;;-0.44;100.00;66737.06;5069843;28;20039;-82
2022/02/27 06:14:30;;;;;;;18.70;6.57;;;;;;;;;;5060025;28;20052;-84
2022/02/27 06:16:56;;;;;;;13.02;5.85;;;;;;;-0.46;100.00;66732.22;5032327;28;20120;-83
2022/02/27 06:19:21;;;;;;;15.73;6.65;;;;;;;-0.47;100.00;66731.09;5048257;28;20049;-83
2022/02/27 06:21:46;;;;;;;19.63;6.70;;;;;;;-0.50;100.00;66725.66;5064420;28;20038;-82
2022/02/27 06:24:12;;;;;;;13.20;6.70;;;;;;;-0.53;100.00;66724.91;5061384;28;20041;-82
2022/02/27 06:26:38;;;;;;;14.55;6.82;;;;;;;-0.49;100.00;66729.41;5029411;28;20121;-83
2022/02/27 06:29:04;;;;;;;15.32;6.60;;;;;;;-0.43;100.00;66735.59;5045856;28;20044;-85
2022/02/27 06:31:30;;;;;;;13.20;6.30;;;;;;;-0.45;100.00;66730.72;5038001;28;20059;-82
2022/02/27 06:33:55;;;;;;;13.50;7.00;;;;;;;-0.41;100.00;66735.22;5029024;28;20183;-85
2022/02/27 06:36:21;;;;;;;15.60;6.60;;;;;;;-0.41;100.00;66742.50;5045642;28;20125;-84
2022/02/27 06:38:46;;;;;;;12.88;6.30;;;;;;;-0.39;100.00;66742.69;5045232;28;20043;-84
2022/02/27 06:41:15;;;;;;;10.90;5.75;;;;;;;-0.40;100.00;66743.59;5045003;28;20038;-84
2022/02/27 06:43:42;;;;;;;17.70;6.73;;;;;;;-0.36;100.00;66742.88;5049947;28;20479;-84
2022/02/27 06:46:14;;;;;;;11.38;6.40;;;;;;;-0.40;100.00;66738.38;5034436;28;20045;-84
2022/02/27 06:48:41;;;;;;;11.30;5.60;;;;;;;-0.38;100.00;66743.25;5036716;28;20045;-83
2022/02/27 06:51:11;;;;;;;13.85;7.10;;;;;;;-0.38;100.00;66743.25;5050764;28;20049;-86
2022/02/27 06:53:43;;;;;;;14.15;6.15;;;;;;;-0.35;100.00;66744.56;5032850;28;20034;-82
2022/02/27 06:56:11;;;;;;;15.82;6.60;;;;;;;-0.31;100.00;66749.06;5026248;28;20049;-83
2022/02/27 06:58:37;;;;;;;15.05;6.10;;;;;;;-0.32;100.00;66750.53;5034427;28;20060;-81
2022/02/27 07:01:17;;;;;;;12.63;6.00;;;;;;;-0.29;100.00;66753.38;5042142;28;20044;-83
2022/02/27 07:03:49;;;;;;;12.20;6.15;;;;;;;-0.29;100.00;66750.75;5038967;28;20041;-83
2022/02/27 07:06:20;;;;;;;12.82;6.65;;;;;;;-0.18;100.00;66759.94;5054805;28;20045;-83
2022/02/27 07:08:46;;;;;;;13.15;5.90;;;;;;;-0.16;100.00;66762.75;5028846;28;20052;-81
2022/02/27 07:11:15;;;;;;;14.95;5.90;;;;;;;-0.10;100.00;66774.72;5025729;28;20041;-82
2022/02/27 07:13:41;;;;;;;12.65;6.03;;;;;;;-0.09;100.00;66770.06;5033326;28;20041;-82
2022/02/27 07:16:07;;;;;;;10.75;5.40;;;;;;;-0.08;100.00;66773.81;5038901;28;20500;-82
2022/02/27 07:18:32;;;;;;;13.02;5.53;;;;;;;-0.02;100.00;66783.16;5047504;28;20068;-84
2022/02/27 07:20:57;;;;;;;12.38;5.78;;;;;;;0.05;100.00;66785.25;5030306;28;20402;-83
2022/02/27 07:23:24;;;;;;;12.00;6.40;;;;;;;0.11;100.00;66792.53;5032217;28;20082;-83
2022/02/27 07:25:49;;;;;;;15.15;6.70;;;;;;;0.18;100.00;66803.03;5035355;28;20069;-83
2022/02/27 07:28:14;;;;;;;14.43;6.85;;;;;;;;;;5038170;28;20156;-85
2022/02/27 07:30:40;;;;;;;12.85;5.82;;;;;;;0.29;100.00;66814.28;5017053;28;20135;-85
2022/02/27 07:33:05;;;;;;;18.80;6.10;;;;;;;0.33;100.00;66819.34;5006971;28;20045;-84
2022/02/27 07:35:30;;;;;;;14.82;5.82;;;;;;;;;;5028022;28;20502;-82
2022/02/27 07:37:58;;;;;;;17.00;5.97;;;;;;;0.51;100.00;66838.47;5034427;28;20084;-84
2022/02/27 07:40:23;;;;;;;16.00;5.05;;;;;;;0.60;100.00;66846.53;5035929;28;20111;-84
2022/02/27 07:42:48;;;;;;;15.20;6.38;;;;;;;0.66;100.00;66855.34;5035825;28;20045;-83
2022/02/27 07:45:18;;;;;;;14.20;6.28;;;;;;;0.74;100.00;66864.34;5019303;28;20033;-84
2022/02/27 07:47:43;;;;;;;14.13;6.85;;;;;;;0.81;100.00;66874.28;5049171;28;20493;-83
2022/02/27 07:50:09;;;;;;;11.00;5.82;;;;;;;0.95;100.00;66884.22;5035406;28;20094;-84
2022/02/27 07:52:34;;;;;;;16.58;6.28;;;;;;;;;;5062809;28;20051;-82
2022/02/27 07:54:59;;;;;;;13.50;6.00;;;;;;;1.13;100.00;66910.28;5033408;28;20053;-85
2022/02/27 07:57:26;;;;;;;12.30;5.28;;;;;;;1.19;100.00;66910.69;5031735;28;21941;-83
2022/02/27 07:59:51;;;;;;;17.63;6.40;;;;;;;1.25;100.00;66918.00;5035599;28;20440;-85
2022/02/27 08:02:16;;;;;;;12.75;6.35;;;;;;;1.35;100.00;66931.88;5063254;28;20049;-83
2022/02/27 08:04:42;;;;;;;17.70;6.50;;;;;;;1.39;100.00;66933.19;5046604;28;20421;-83
2022/02/27 08:07:07;;;;;;;14.32;6.15;;;;;;;1.51;100.00;66946.69;5032456;28;20486;-85
2022/02/27 08:09:33;;;;;;;16.00;6.03;;;;;;;1.60;100.00;66956.28;5048693;28;20061;-84
2022/02/27 08:11:59;;;;;;;10.82;5.85;;;;;;;1.67;100.00;66966.78;5053160;28;20044;-84
2022/02/27 08:14:25;;;;;;;16.45;6.72;;;;;;;1.74;100.00;66972.03;5032186;28;20364;-84
2022/02/27 08:16:51;;;;;;;14.85;6.57;;;;;;;1.85;100.00;66986.50;5030723;28;20042;-84
2022/02/27 08:19:17;;;;;;;13.65;6.55;;;;;;;;;;5033127;28;20037;-83
2022/02/27 08:21:43;;;;;;;11.30;6.22;;;;;;;2.04;100.00;67004.69;5036792;28;20095;-85
2022/02/27 08:24:09;;;;;;;14.10;6.05;;;;;;;2.15;99.48;67011.28;5030518;28;20053;-84
2022/02/27 08:26:42;;;;;;;13.75;6.82;;;;;;;2.25;98.63;67022.53;5062230;28;20732;-83
2022/02/27 08:29:08;;;;;;;14.30;7.03;;;;;;;2.29;98.63;67031.75;5039148;28;20131;-83
2022/02/27 08:31:44;;;;;;;18.10;6.13;;;;;;;;;;5043719;28;20047;-84
2022/02/27 08:34:10;;;;;;;10.32;5.40;;;;;;;2.45;96.77;67052.41;5030228;28;20090;-84
2022/02/27 08:36:36;;;;;;;13.75;6.15;;;;;;;;;;5036114;28;20053;-83
2022/02/27 08:39:03;;;;;;;10.40;5.95;;;;;;;2.61;95.64;67072.47;5044587;28;20390;-83
2022/02/27 08:41:28;;;;;;;15.77;6.45;;;;;;;2.65;95.37;67071.75;5041016;28;20136;-82
2022/02/27 08:43:53;;;;;;;13.35;5.85;;;;;;;2.80;94.87;67090.72;5059282;28;20553;-82
2022/02/27 08:46:20;;;;;;;10.57;5.15;;;;;;;;;;5074299;28;20033;-82
2022/02/27 08:48:46;;;;;;;15.60;5.80;;;;;;;2.91;94.18;67103.13;5042309;28;20132;-84
2022/02/27 08:51:12;;;;;;;12.63;5.97;;;;;;;2.99;94.04;67111.56;5041170;28;20137;-83
2022/02/27 08:53:37;;;;;;;13.05;5.22;;;;;;;3.06;92.74;67116.84;5062495;28;20493;-84
2022/02/27 08:56:02;;;;;;;12.00;6.20;;;;;;;;;;5056932;28;20045;-82
2022/02/27 08:58:28;;;;;;;11.15;4.72;;;;;;;3.23;91.61;67136.00;5036658;28;20076;-83
2022/02/27 09:00:53;;;;;;;15.25;5.35;;;;;;;;;;5061401;28;20552;-83
2022/02/27 09:03:24;;;;;;;10.05;5.10;;;;;;;3.31;90.14;67150.28;5065738;28;20045;-85
2022/02/27 09:05:50;;;;;;;8.60;4.80;;;;;;;3.33;89.59;67149.91;5035013;28;20099;-84
2022/02/27 09:08:16;;;;;;;12.45;5.15;;;;;;;3.41;88.67;67155.19;5034606;28;20045;-84
2022/02/27 09:10:42;;;;;;;9.85;4.18;;;;;;;3.50;88.31;67171.16;5039149;28;20106;-84
2022/02/27 09:13:07;;;;;;;12.00;5.50;;;;;;;3.55;88.34;67170.97;5027960;28;20513;-84
2022/02/27 09:15:33;;;;;;;12.48;4.88;;;;;;;3.55;87.46;67174.16;5057713;28;20045;-83
2022/02/27 09:17:59;;;;;;;11.23;5.80;;;;;;;3.61;87.74;67177.72;5023093;28;20115;-84
2022/02/27 09:20:25;;;;;;;9.65;4.75;;;;;;;3.78;87.82;67196.91;5008219;28;20183;-84
2022/02/27 09:22:50;;;;;;;11.75;5.50;;;;;;;3.85;86.55;67204.22;5053017;28;20068;-85
2022/02/27 09:25:15;;;;;;;11.32;5.45;;;;;;;3.96;86.22;67216.66;5022798;28;20140;-85
2022/02/27 09:27:41;;;;;;;10.95;5.10;;;;;;;3.97;85.37;67217.78;5043817;28;20044;-84
2022/02/27 09:30:06;;;;;;;8.95;4.68;;;;;;;4.06;85.72;67222.13;5058972;28;20033;-85
2022/02/27 09:32:32;;;;;;;8.52;4.15;;;;;;;4.13;84.43;67234.72;5035833;28;20045;-84
2022/02/27 09:34:57;;;;;;;11.60;4.45;;;;;;;;;;5047443;28;20061;-84
2022/02/27 09:37:22;;;;;;;12.77;4.28;;;;;;;;;;5048667;28;20037;-85
2022/02/27 09:39:49;;;;;;;9.63;5.05;;;;;;;4.28;82.40;67256.91;5042223;28;20045;-85
2022/02/27 09:42:14;;;;;;;8.05;4.15;;;;;;;4.33;81.92;67257.28;5040379;28;20045;-85
2022/02/27 09:44:42;;;;;;;12.63;4.30;;;;;;;4.37;81.79;67256.53;5050061;28;20053;-86
2022/02/27 09:47:13;;;;;;;11.63;4.47;;;;;;;4.45;82.13;67270.81;5039398;28;20410;-85
2022/02/27 09:49:39;;;;;;;9.90;4.60;;;;;;;;;;5034390;28;20459;-85
2022/02/27 09:52:05;;;;;;;11.55;4.30;;;;;;;;;;5037249;28;20056;-85
2022/02/27 09:54:34;;;;;;;10.10;4.32;;;;;;;4.61;79.87;67287.78;5035945;28;20050;-85
2022/02/27 09:56:59;;;;;;;10.85;5.18;;;;;;;;;;5035804;28;21497;-86
2022/02/27 09:59:24;;;;;;;8.57;3.80;;;;;;;;;;5048504;28;20037;-85
2022/02/27 10:01:56;;;;;;;12.73;4.53;;;;;;;4.69;79.63;67296.78;5034468;28;20053;-85
2022/02/27 10:04:22;;;;;;;6.68;3.88;;;;;;;4.70;79.86;67298.50;5040622;28;20124;-87
2022/02/27 10:06:49;;;;;;;8.52;4.60;;;;;;;4.72;79.90;67300.19;5025327;28;20128;-85
2022/02/27 10:09:24;;;;;;;8.27;3.55;;;;;;;;;;5054018;28;20041;-86
2022/02/27 10:11:51;;;;;;;9.35;4.07;;;;;;;4.87;77.62;67317.13;5032253;28;20049;-84
2022/02/27 10:14:29;;;;;;;7.97;4.32;;;;;;;4.93;77.48;67318.63;5053344;28;20056;-85
2022/02/27 10:17:07;;;;;;;11.38;4.88;;;;;;;5.03;78.05;67334.06;5037692;28;20116;-87
2022/02/27 10:19:39;;;;;;;10.32;4.70;;;;;;;5.14;78.08;67341.78;5039667;28;20045;-86
2022/02/27 10:22:08;;;;;;;7.35;4.05;;;;;;;5.27;78.60;67363.81;5073740;28;20136;-88
2022/02/27 10:24:34;;;;;;;11.00;4.18;;;;;;;;;;5043741;28;20096;-88
2022/02/27 10:26:59;;;;;;;9.55;4.65;;;;;;;5.46;76.32;67382.06;5061027;28;20041;-87
2022/02/27 10:29:26;;;;;;;6.78;3.88;;;;;;;5.55;76.54;67392.25;5044456;28;20033;-89
2022/02/27 10:31:51;;;;;;;7.00;4.38;;;;;;;;;;5055055;28;20036;-89
2022/02/27 10:34:21;;;;;;;7.22;3.83;;;;;;;;;;5045287;28;20045;-87
2022/02/27 10:37:14;;;;;;;7.72;4.00;;;;;;;5.64;76.84;67402.41;5075345;28;20533;-87
2022/02/27 10:39:48;;;;;;;11.98;3.85;;;;;;;5.73;76.02;67406.19;5055325;28;20410;-87
2022/02/27 10:42:17;;;;;;;9.15;3.53;;;;;;;;;;5045657;28;20048;-86
2022/02/27 10:44:44;;;;;;;7.50;3.75;;;;;;;;;;5040863;28;20098;-88
2022/02/27 10:47:12;;;;;;;9.48;3.40;;;;;;;5.87;72.87;67427.28;5067896;28;20041;-87
2022/02/27 10:49:38;;;;;;;8.82;4.07;;;;;;;5.90;74.10;67430.69;5037979;28;20048;-87
2022/02/27 10:52:26;;;;;;;8.57;4.05;;;;;;;;;;5038420;28;20418;-86
2022/02/27 10:54:56;;;;;;;6.80;3.67;;;;;;;5.91;72.03;67431.81;5074047;28;20047;-86
2022/02/27 10:57:28;;;;;;;8.15;3.65;;;;;;;5.96;71.18;67431.63;5072859;28;20167;-85
2022/02/27 10:59:55;;;;;;;9.30;3.45;;;;;;;;;;5048849;28;20056;-85
2022/02/27 11:02:28;;;;;;;8.00;3.75;;;;;;;6.12;70.26;67455.00;5035867;28;20465;-84
2022/02/27 11:04:54;;;;;;;10.43;4.32;;;;;;;;;;5037979;28;20175;-86
2022/02/27 11:07:19;;;;;;;7.97;2.90;;;;;;;6.25;71.64;67464.41;5040479;28;20075;-83
2022/02/27 11:09:45;;;;;;;8.88;3.60;;;;;;;6.39;72.72;67479.69;5044554;28;20037;-85
2022/02/27 11:12:14;;;;;;;7.22;3.33;;;;;;;6.52;73.10;67494.38;5056609;28;20091;-86
2022/02/27 11:14:42;;;;;;;8.07;3.40;;;;;;;6.57;71.75;67504.75;5036698;28;20394;-85
2022/02/27 11:17:10;;;;;;;8.73;3.42;;;;;;;6.66;70.32;67509.63;5046932;28;20048;-85
2022/02/27 11:19:37;;;;;;;7.13;3.72;;;;;;;6.57;71.23;67496.81;5040205;28;20402;-85
2022/02/27 11:22:04;;;;;;;9.27;3.67;;;;;;;6.50;69.68;67497.41;5040295;28;20557;-84
2022/02/27 11:24:32;;;;;;;6.10;2.92;;;;;;;;;;5045436;28;20520;-85
2022/02/27 11:26:57;;;;;;;8.35;3.67;;;;;;;6.46;71.81;67487.03;5046900;28;20199;-84
2022/02/27 11:29:23;;;;;;;7.38;3.60;;;;;;;6.68;71.33;67511.34;5042139;28;20486;-88
2022/02/27 11:31:48;;;;;;;10.25;3.55;;;;;;;6.64;71.76;67507.38;5024987;28;20617;-85
2022/02/27 11:34:14;;;;;;;9.35;3.63;;;;;;;;;;5050433;28;20041;-85
2022/02/27 11:36:41;;;;;;;9.57;3.30;;;;;;;6.76;68.53;67520.38;5053932;28;20472;-86
2022/02/27 11:39:06;;;;;;;7.30;3.22;;;;;;;6.82;70.98;67527.19;5050246;28;20509;-87
2022/02/27 11:41:47;;;;;;;10.00;4.50;;;;;;;;;;5040156;28;20075;-86
2022/02/27 11:44:14;;;;;;;7.25;3.45;;;;;;;6.98;72.66;67550.56;5070049;28;20053;-87